sensor_id;sensor_type;location;lat;lon;timestamp;temperature;humidity
32640;DHT22;19049;52.524;11.468;2022-07-24T00:00:23;11.80;69.80
32640;DHT22;19049;52.524;11.468;2022-07-24T00:02:49;11.70;70.30
32640;DHT22;19049;52.524;11.468;2022-07-24T00:05:15;11.70;70.30
32640;DHT22;19049;52.524;11.468;2022-07-24T00:07:40;11.70;70.30
32640;DHT22;19049;52.524;11.468;2022-07-24T00:10:07;11.70;70.30
32640;DHT22;19049;52.524;11.468;2022-07-24T00:12:33;11.60;70.30
32640;DHT22;19049;52.524;11.468;2022-07-24T00:14:58;11.60;70.30
32640;DHT22;19049;52.524;11.468;2022-07-24T00:17:24;11.50;70.40
32640;DHT22;19049;52.524;11.468;2022-07-24T00:19:50;11.50;70.70
32640;DHT22;19049;52.524;11.468;2022-07-24T00:22:15;11.50;71.00
32640;DHT22;19049;52.524;11.468;2022-07-24T00:24:43;11.50;71.10
32640;DHT22;19049;52.524;11.468;2022-07-24T00:27:09;11.40;71.10
32640;DHT22;19049;52.524;11.468;2022-07-24T00:29:35;11.40;71.20
32640;DHT22;19049;52.524;11.468;2022-07-24T00:32:01;11.40;71.20
32640;DHT22;19049;52.524;11.468;2022-07-24T00:34:26;11.30;71.20
32640;DHT22;19049;52.524;11.468;2022-07-24T00:36:52;11.30;71.40
32640;DHT22;19049;52.524;11.468;2022-07-24T00:39:18;11.30;71.80
32640;DHT22;19049;52.524;11.468;2022-07-24T00:41:53;11.30;71.90
32640;DHT22;19049;52.524;11.468;2022-07-24T00:44:21;11.20;71.70
32640;DHT22;19049;52.524;11.468;2022-07-24T00:46:50;11.20;71.70
32640;DHT22;19049;52.524;11.468;2022-07-24T00:49:17;11.20;71.90
32640;DHT22;19049;52.524;11.468;2022-07-24T00:51:45;11.20;71.60
32640;DHT22;19049;52.524;11.468;2022-07-24T00:54:12;11.10;71.80
32640;DHT22;19049;52.524;11.468;2022-07-24T00:56:39;11.10;72.30
32640;DHT22;19049;52.524;11.468;2022-07-24T00:59:06;11.10;72.40
32640;DHT22;19049;52.524;11.468;2022-07-24T01:01:32;11.10;72.60
32640;DHT22;19049;52.524;11.468;2022-07-24T01:03:58;11.10;72.60
32640;DHT22;19049;52.524;11.468;2022-07-24T01:06:24;11.10;72.60
32640;DHT22;19049;52.524;11.468;2022-07-24T01:08:50;11.10;72.70
32640;DHT22;19049;52.524;11.468;2022-07-24T01:11:19;11.00;72.60
32640;DHT22;19049;52.524;11.468;2022-07-24T01:13:47;11.00;72.70
32640;DHT22;19049;52.524;11.468;2022-07-24T01:16:20;11.00;72.60
32640;DHT22;19049;52.524;11.468;2022-07-24T01:18:46;11.00;72.70
32640;DHT22;19049;52.524;11.468;2022-07-24T01:21:11;10.90;72.70
32640;DHT22;19049;52.524;11.468;2022-07-24T01:23:37;10.90;72.60
32640;DHT22;19049;52.524;11.468;2022-07-24T01:26:07;10.90;72.90
32640;DHT22;19049;52.524;11.468;2022-07-24T01:28:33;10.80;73.20
32640;DHT22;19049;52.524;11.468;2022-07-24T01:31:01;10.80;73.10
32640;DHT22;19049;52.524;11.468;2022-07-24T01:33:27;10.80;73.20
32640;DHT22;19049;52.524;11.468;2022-07-24T01:35:53;10.70;73.10
32640;DHT22;19049;52.524;11.468;2022-07-24T01:38:25;10.70;73.10
32640;DHT22;19049;52.524;11.468;2022-07-24T01:40:51;10.70;73.20
32640;DHT22;19049;52.524;11.468;2022-07-24T01:43:16;10.60;73.40
32640;DHT22;19049;52.524;11.468;2022-07-24T01:45:42;10.60;73.40
32640;DHT22;19049;52.524;11.468;2022-07-24T01:48:08;10.60;73.70
32640;DHT22;19049;52.524;11.468;2022-07-24T01:50:36;10.60;73.90
32640;DHT22;19049;52.524;11.468;2022-07-24T01:53:02;10.50;73.80
32640;DHT22;19049;52.524;11.468;2022-07-24T01:55:28;10.50;73.80
32640;DHT22;19049;52.524;11.468;2022-07-24T01:57:54;10.50;73.80
32640;DHT22;19049;52.524;11.468;2022-07-24T02:00:19;10.50;73.70
32640;DHT22;19049;52.524;11.468;2022-07-24T02:02:45;10.40;73.70
32640;DHT22;19049;52.524;11.468;2022-07-24T02:05:12;10.40;73.80
32640;DHT22;19049;52.524;11.468;2022-07-24T02:07:39;10.40;74.00
32640;DHT22;19049;52.524;11.468;2022-07-24T02:10:05;10.30;74.00
32640;DHT22;19049;52.524;11.468;2022-07-24T02:12:31;10.30;74.00
32640;DHT22;19049;52.524;11.468;2022-07-24T02:14:57;10.30;74.00
32640;DHT22;19049;52.524;11.468;2022-07-24T02:17:22;10.20;74.00
32640;DHT22;19049;52.524;11.468;2022-07-24T02:19:48;10.20;74.10
32640;DHT22;19049;52.524;11.468;2022-07-24T02:22:13;10.20;73.70
32640;DHT22;19049;52.524;11.468;2022-07-24T02:24:39;10.20;73.70
32640;DHT22;19049;52.524;11.468;2022-07-24T02:27:05;10.20;74.00
32640;DHT22;19049;52.524;11.468;2022-07-24T02:29:30;10.20;74.20
32640;DHT22;19049;52.524;11.468;2022-07-24T02:31:56;10.20;73.80
32640;DHT22;19049;52.524;11.468;2022-07-24T02:34:22;10.30;73.70
32640;DHT22;19049;52.524;11.468;2022-07-24T02:36:47;10.30;74.00
32640;DHT22;19049;52.524;11.468;2022-07-24T02:39:13;10.30;74.10
32640;DHT22;19049;52.524;11.468;2022-07-24T02:41:38;10.30;74.40
32640;DHT22;19049;52.524;11.468;2022-07-24T02:44:04;10.30;74.30
32640;DHT22;19049;52.524;11.468;2022-07-24T02:46:29;10.30;74.70
32640;DHT22;19049;52.524;11.468;2022-07-24T02:48:55;10.30;74.20
32640;DHT22;19049;52.524;11.468;2022-07-24T02:51:21;10.30;74.30
32640;DHT22;19049;52.524;11.468;2022-07-24T02:53:49;10.30;74.20
32640;DHT22;19049;52.524;11.468;2022-07-24T02:56:15;10.30;74.20
32640;DHT22;19049;52.524;11.468;2022-07-24T02:58:40;10.30;74.10
32640;DHT22;19049;52.524;11.468;2022-07-24T03:01:06;10.20;74.20
32640;DHT22;19049;52.524;11.468;2022-07-24T03:03:32;10.20;74.50
32640;DHT22;19049;52.524;11.468;2022-07-24T03:05:57;10.20;74.40
32640;DHT22;19049;52.524;11.468;2022-07-24T03:08:23;10.20;74.40
32640;DHT22;19049;52.524;11.468;2022-07-24T03:10:51;10.10;74.40
32640;DHT22;19049;52.524;11.468;2022-07-24T03:13:16;10.20;74.80
32640;DHT22;19049;52.524;11.468;2022-07-24T03:15:42;10.10;74.60
32640;DHT22;19049;52.524;11.468;2022-07-24T03:18:08;10.10;75.40
32640;DHT22;19049;52.524;11.468;2022-07-24T03:20:33;10.10;74.90
32640;DHT22;19049;52.524;11.468;2022-07-24T03:22:59;10.10;74.90
32640;DHT22;19049;52.524;11.468;2022-07-24T03:25:25;10.10;74.80
32640;DHT22;19049;52.524;11.468;2022-07-24T03:27:51;10.00;74.50
32640;DHT22;19049;52.524;11.468;2022-07-24T03:30:17;10.00;74.50
32640;DHT22;19049;52.524;11.468;2022-07-24T03:32:44;10.00;74.90
32640;DHT22;19049;52.524;11.468;2022-07-24T03:35:10;10.00;75.10
32640;DHT22;19049;52.524;11.468;2022-07-24T03:37:35;10.00;75.20
32640;DHT22;19049;52.524;11.468;2022-07-24T03:40:03;10.00;75.20
32640;DHT22;19049;52.524;11.468;2022-07-24T03:42:28;10.00;75.00
32640;DHT22;19049;52.524;11.468;2022-07-24T03:44:54;10.00;75.20
32640;DHT22;19049;52.524;11.468;2022-07-24T03:47:20;10.00;75.40
32640;DHT22;19049;52.524;11.468;2022-07-24T03:49:45;9.90;75.30
32640;DHT22;19049;52.524;11.468;2022-07-24T03:52:11;10.00;75.20
32640;DHT22;19049;52.524;11.468;2022-07-24T03:54:37;10.00;75.30
32640;DHT22;19049;52.524;11.468;2022-07-24T03:57:03;10.00;75.20
32640;DHT22;19049;52.524;11.468;2022-07-24T03:59:31;10.00;75.20
32640;DHT22;19049;52.524;11.468;2022-07-24T04:01:57;10.00;75.20
32640;DHT22;19049;52.524;11.468;2022-07-24T04:04:23;10.00;75.30
32640;DHT22;19049;52.524;11.468;2022-07-24T04:06:48;10.10;75.70
32640;DHT22;19049;52.524;11.468;2022-07-24T04:09:14;10.10;75.80
32640;DHT22;19049;52.524;11.468;2022-07-24T04:11:40;10.20;76.10
32640;DHT22;19049;52.524;11.468;2022-07-24T04:14:05;10.20;75.90
32640;DHT22;19049;52.524;11.468;2022-07-24T04:16:32;10.30;76.00
32640;DHT22;19049;52.524;11.468;2022-07-24T04:18:57;10.30;76.00
32640;DHT22;19049;52.524;11.468;2022-07-24T04:21:23;10.50;76.40
32640;DHT22;19049;52.524;11.468;2022-07-24T04:23:48;10.70;77.30
32640;DHT22;19049;52.524;11.468;2022-07-24T04:26:14;10.90;78.00
32640;DHT22;19049;52.524;11.468;2022-07-24T04:28:40;11.20;78.10
32640;DHT22;19049;52.524;11.468;2022-07-24T04:31:07;11.50;78.00
32640;DHT22;19049;52.524;11.468;2022-07-24T04:33:33;11.80;78.00
32640;DHT22;19049;52.524;11.468;2022-07-24T04:35:58;12.10;77.90
32640;DHT22;19049;52.524;11.468;2022-07-24T04:38:24;12.40;77.80
32640;DHT22;19049;52.524;11.468;2022-07-24T04:40:50;12.70;77.60
32640;DHT22;19049;52.524;11.468;2022-07-24T04:43:16;13.00;77.50
32640;DHT22;19049;52.524;11.468;2022-07-24T04:45:41;13.30;77.30
32640;DHT22;19049;52.524;11.468;2022-07-24T04:48:09;13.60;76.90
32640;DHT22;19049;52.524;11.468;2022-07-24T04:50:37;14.00;76.40
32640;DHT22;19049;52.524;11.468;2022-07-24T04:53:03;14.30;75.90
32640;DHT22;19049;52.524;11.468;2022-07-24T04:55:28;14.50;75.30
32640;DHT22;19049;52.524;11.468;2022-07-24T04:57:54;14.80;74.90
32640;DHT22;19049;52.524;11.468;2022-07-24T05:00:20;15.00;74.60
32640;DHT22;19049;52.524;11.468;2022-07-24T05:02:45;15.20;74.40
32640;DHT22;19049;52.524;11.468;2022-07-24T05:05:11;15.40;74.30
32640;DHT22;19049;52.524;11.468;2022-07-24T05:07:44;15.70;74.30
32640;DHT22;19049;52.524;11.468;2022-07-24T05:10:10;16.00;74.10
32640;DHT22;19049;52.524;11.468;2022-07-24T05:12:36;16.30;73.80
32640;DHT22;19049;52.524;11.468;2022-07-24T05:15:03;16.50;73.50
32640;DHT22;19049;52.524;11.468;2022-07-24T05:17:29;16.80;73.10
32640;DHT22;19049;52.524;11.468;2022-07-24T05:19:54;17.00;72.70
32640;DHT22;19049;52.524;11.468;2022-07-24T05:22:20;17.30;72.50
32640;DHT22;19049;52.524;11.468;2022-07-24T05:24:46;17.60;72.20
32640;DHT22;19049;52.524;11.468;2022-07-24T05:27:11;17.80;71.80
32640;DHT22;19049;52.524;11.468;2022-07-24T05:29:39;18.10;71.60
32640;DHT22;19049;52.524;11.468;2022-07-24T05:32:05;18.40;71.40
32640;DHT22;19049;52.524;11.468;2022-07-24T05:34:31;18.70;71.00
32640;DHT22;19049;52.524;11.468;2022-07-24T05:36:57;18.90;70.70
32640;DHT22;19049;52.524;11.468;2022-07-24T05:39:22;19.10;70.40
32640;DHT22;19049;52.524;11.468;2022-07-24T05:41:48;19.40;70.10
32640;DHT22;19049;52.524;11.468;2022-07-24T05:44:14;19.60;69.80
32640;DHT22;19049;52.524;11.468;2022-07-24T05:46:39;19.90;69.70
32640;DHT22;19049;52.524;11.468;2022-07-24T05:49:05;20.10;69.40
32640;DHT22;19049;52.524;11.468;2022-07-24T05:51:30;20.40;69.10
32640;DHT22;19049;52.524;11.468;2022-07-24T05:53:57;20.70;68.80
32640;DHT22;19049;52.524;11.468;2022-07-24T05:56:23;21.00;68.40
32640;DHT22;19049;52.524;11.468;2022-07-24T05:58:48;21.40;68.80
32640;DHT22;19049;52.524;11.468;2022-07-24T06:01:14;21.70;67.40
32640;DHT22;19049;52.524;11.468;2022-07-24T06:03:40;22.00;67.10
32640;DHT22;19049;52.524;11.468;2022-07-24T06:06:05;22.30;67.20
32640;DHT22;19049;52.524;11.468;2022-07-24T06:08:33;22.60;66.30
32640;DHT22;19049;52.524;11.468;2022-07-24T06:10:59;22.90;65.40
32640;DHT22;19049;52.524;11.468;2022-07-24T06:13:24;23.20;64.90
32640;DHT22;19049;52.524;11.468;2022-07-24T06:15:50;23.50;63.90
32640;DHT22;19049;52.524;11.468;2022-07-24T06:18:16;23.80;63.20
32640;DHT22;19049;52.524;11.468;2022-07-24T06:20:41;24.00;62.40
32640;DHT22;19049;52.524;11.468;2022-07-24T06:23:07;24.20;60.80
32640;DHT22;19049;52.524;11.468;2022-07-24T06:25:33;24.40;59.90
32640;DHT22;19049;52.524;11.468;2022-07-24T06:27:58;24.40;59.30
32640;DHT22;19049;52.524;11.468;2022-07-24T06:30:26;24.50;58.10
32640;DHT22;19049;52.524;11.468;2022-07-24T06:32:59;24.50;58.10
32640;DHT22;19049;52.524;11.468;2022-07-24T06:35:27;24.60;57.50
32640;DHT22;19049;52.524;11.468;2022-07-24T06:37:53;24.70;57.10
32640;DHT22;19049;52.524;11.468;2022-07-24T06:40:19;24.80;57.50
32640;DHT22;19049;52.524;11.468;2022-07-24T06:42:47;25.00;57.60
32640;DHT22;19049;52.524;11.468;2022-07-24T06:45:13;25.10;57.10
32640;DHT22;19049;52.524;11.468;2022-07-24T06:47:39;25.20;56.50
32640;DHT22;19049;52.524;11.468;2022-07-24T06:50:06;25.40;56.80
32640;DHT22;19049;52.524;11.468;2022-07-24T06:52:31;25.60;55.20
32640;DHT22;19049;52.524;11.468;2022-07-24T06:54:57;25.70;55.70
32640;DHT22;19049;52.524;11.468;2022-07-24T06:57:23;25.80;55.60
32640;DHT22;19049;52.524;11.468;2022-07-24T06:59:51;25.90;55.20
32640;DHT22;19049;52.524;11.468;2022-07-24T07:02:18;26.10;55.30
32640;DHT22;19049;52.524;11.468;2022-07-24T07:04:44;26.20;54.80
32640;DHT22;19049;52.524;11.468;2022-07-24T07:07:09;26.30;54.00
32640;DHT22;19049;52.524;11.468;2022-07-24T07:09:35;26.40;53.70
32640;DHT22;19049;52.524;11.468;2022-07-24T07:12:02;26.60;53.50
32640;DHT22;19049;52.524;11.468;2022-07-24T07:14:27;26.70;52.80
32640;DHT22;19049;52.524;11.468;2022-07-24T07:16:53;26.80;52.80
32640;DHT22;19049;52.524;11.468;2022-07-24T07:19:19;26.90;52.80
32640;DHT22;19049;52.524;11.468;2022-07-24T07:21:44;27.00;51.20
32640;DHT22;19049;52.524;11.468;2022-07-24T07:24:10;27.20;52.50
32640;DHT22;19049;52.524;11.468;2022-07-24T07:26:36;27.30;51.80
32640;DHT22;19049;52.524;11.468;2022-07-24T07:29:02;27.40;50.60
32640;DHT22;19049;52.524;11.468;2022-07-24T07:31:28;27.60;50.30
32640;DHT22;19049;52.524;11.468;2022-07-24T07:33:53;27.60;50.20
32640;DHT22;19049;52.524;11.468;2022-07-24T07:36:22;27.70;50.10
32640;DHT22;19049;52.524;11.468;2022-07-24T07:38:47;27.80;48.70
32640;DHT22;19049;52.524;11.468;2022-07-24T07:41:13;28.00;49.80
32640;DHT22;19049;52.524;11.468;2022-07-24T07:43:38;28.10;49.30
32640;DHT22;19049;52.524;11.468;2022-07-24T07:46:05;28.30;49.30
32640;DHT22;19049;52.524;11.468;2022-07-24T07:48:31;28.40;48.90
32640;DHT22;19049;52.524;11.468;2022-07-24T07:50:57;28.60;48.70
32640;DHT22;19049;52.524;11.468;2022-07-24T07:53:23;28.80;48.40
32640;DHT22;19049;52.524;11.468;2022-07-24T07:55:48;28.90;47.40
32640;DHT22;19049;52.524;11.468;2022-07-24T07:58:17;29.00;47.40
32640;DHT22;19049;52.524;11.468;2022-07-24T08:00:43;29.10;46.90
32640;DHT22;19049;52.524;11.468;2022-07-24T08:03:08;29.30;47.00
32640;DHT22;19049;52.524;11.468;2022-07-24T08:05:34;29.50;47.90
32640;DHT22;19049;52.524;11.468;2022-07-24T08:08:00;29.70;46.40
32640;DHT22;19049;52.524;11.468;2022-07-24T08:10:25;29.80;46.20
32640;DHT22;19049;52.524;11.468;2022-07-24T08:12:51;29.90;44.70
32640;DHT22;19049;52.524;11.468;2022-07-24T08:15:17;30.00;45.10
32640;DHT22;19049;52.524;11.468;2022-07-24T08:17:43;30.10;44.20
32640;DHT22;19049;52.524;11.468;2022-07-24T08:20:09;30.20;43.90
32640;DHT22;19049;52.524;11.468;2022-07-24T08:22:35;30.30;43.60
32640;DHT22;19049;52.524;11.468;2022-07-24T08:25:00;30.30;43.40
32640;DHT22;19049;52.524;11.468;2022-07-24T08:27:26;30.40;43.00
32640;DHT22;19049;52.524;11.468;2022-07-24T08:29:52;30.60;43.00
32640;DHT22;19049;52.524;11.468;2022-07-24T08:32:20;30.70;43.40
32640;DHT22;19049;52.524;11.468;2022-07-24T08:34:45;30.80;42.70
32640;DHT22;19049;52.524;11.468;2022-07-24T08:37:11;30.90;42.50
32640;DHT22;19049;52.524;11.468;2022-07-24T08:39:37;31.00;42.60
32640;DHT22;19049;52.524;11.468;2022-07-24T08:42:07;31.10;42.80
32640;DHT22;19049;52.524;11.468;2022-07-24T08:44:43;31.30;41.20
32640;DHT22;19049;52.524;11.468;2022-07-24T08:47:11;31.30;40.00
32640;DHT22;19049;52.524;11.468;2022-07-24T08:49:39;31.30;40.90
32640;DHT22;19049;52.524;11.468;2022-07-24T08:52:05;31.40;41.20
32640;DHT22;19049;52.524;11.468;2022-07-24T08:54:40;31.50;41.50
32640;DHT22;19049;52.524;11.468;2022-07-24T08:57:06;31.60;40.60
32640;DHT22;19049;52.524;11.468;2022-07-24T08:59:32;31.80;40.60
32640;DHT22;19049;52.524;11.468;2022-07-24T09:01:58;31.90;40.70
32640;DHT22;19049;52.524;11.468;2022-07-24T09:06:59;32.00;36.30
32640;DHT22;19049;52.524;11.468;2022-07-24T09:09:25;31.90;38.00
32640;DHT22;19049;52.524;11.468;2022-07-24T09:12:03;31.90;37.40
32640;DHT22;19049;52.524;11.468;2022-07-24T09:14:33;31.80;36.70
32640;DHT22;19049;52.524;11.468;2022-07-24T09:17:15;31.80;37.90
32640;DHT22;19049;52.524;11.468;2022-07-24T09:19:59;31.80;38.40
32640;DHT22;19049;52.524;11.468;2022-07-24T09:25:16;31.70;38.70
32640;DHT22;19049;52.524;11.468;2022-07-24T09:33:06;32.10;39.10
32640;DHT22;19049;52.524;11.468;2022-07-24T09:35:51;32.20;38.40
32640;DHT22;19049;52.524;11.468;2022-07-24T09:38:37;32.40;37.70
32640;DHT22;19049;52.524;11.468;2022-07-24T09:41:02;32.50;37.90
32640;DHT22;19049;52.524;11.468;2022-07-24T09:43:31;32.60;37.80
32640;DHT22;19049;52.524;11.468;2022-07-24T09:46:08;32.60;36.90
32640;DHT22;19049;52.524;11.468;2022-07-24T09:48:53;32.60;36.70
32640;DHT22;19049;52.524;11.468;2022-07-24T09:51:22;32.50;35.70
32640;DHT22;19049;52.524;11.468;2022-07-24T09:53:55;32.50;36.20
32640;DHT22;19049;52.524;11.468;2022-07-24T09:56:24;32.50;36.30
32640;DHT22;19049;52.524;11.468;2022-07-24T09:58:57;32.50;36.60
32640;DHT22;19049;52.524;11.468;2022-07-24T10:01:26;32.50;36.10
32640;DHT22;19049;52.524;11.468;2022-07-24T10:04:04;32.50;36.30
32640;DHT22;19049;52.524;11.468;2022-07-24T10:06:34;32.50;35.40
32640;DHT22;19049;52.524;11.468;2022-07-24T10:09:02;32.60;34.90
32640;DHT22;19049;52.524;11.468;2022-07-24T10:11:33;32.70;35.80
32640;DHT22;19049;52.524;11.468;2022-07-24T10:14:17;32.80;35.70
32640;DHT22;19049;52.524;11.468;2022-07-24T10:16:48;32.80;33.00
32640;DHT22;19049;52.524;11.468;2022-07-24T10:19:22;32.80;34.70
32640;DHT22;19049;52.524;11.468;2022-07-24T10:22:01;32.90;34.70
32640;DHT22;19049;52.524;11.468;2022-07-24T10:24:59;32.80;33.50
32640;DHT22;19049;52.524;11.468;2022-07-24T10:27:32;32.80;32.90
32640;DHT22;19049;52.524;11.468;2022-07-24T10:30:09;32.80;34.40
32640;DHT22;19049;52.524;11.468;2022-07-24T10:36:25;32.80;30.70
32640;DHT22;19049;52.524;11.468;2022-07-24T10:39:26;32.80;32.80
32640;DHT22;19049;52.524;11.468;2022-07-24T10:45:26;32.50;30.40
32640;DHT22;19049;52.524;11.468;2022-07-24T10:53:29;32.30;33.30
32640;DHT22;19049;52.524;11.468;2022-07-24T10:56:38;32.30;32.80
32640;DHT22;19049;52.524;11.468;2022-07-24T10:59:12;32.30;32.50
32640;DHT22;19049;52.524;11.468;2022-07-24T11:01:43;32.40;33.10
32640;DHT22;19049;52.524;11.468;2022-07-24T11:09:53;32.50;33.30
32640;DHT22;19049;52.524;11.468;2022-07-24T11:12:26;32.70;33.50
32640;DHT22;19049;52.524;11.468;2022-07-24T11:14:58;32.80;31.80
32640;DHT22;19049;52.524;11.468;2022-07-24T11:17:46;33.00;31.80
32640;DHT22;19049;52.524;11.468;2022-07-24T11:34:20;33.40;31.50
32640;DHT22;19049;52.524;11.468;2022-07-24T11:36:57;33.40;31.20
32640;DHT22;19049;52.524;11.468;2022-07-24T11:39:32;33.40;30.30
32640;DHT22;19049;52.524;11.468;2022-07-24T11:42:03;33.50;30.60
32640;DHT22;19049;52.524;11.468;2022-07-24T11:44:29;33.60;31.20
32640;DHT22;19049;52.524;11.468;2022-07-24T11:46:57;33.70;30.50
32640;DHT22;19049;52.524;11.468;2022-07-24T11:49:24;33.80;30.40
32640;DHT22;19049;52.524;11.468;2022-07-24T11:51:53;34.00;30.00
32640;DHT22;19049;52.524;11.468;2022-07-24T11:54:27;34.10;30.30
32640;DHT22;19049;52.524;11.468;2022-07-24T11:56:54;34.10;29.50
32640;DHT22;19049;52.524;11.468;2022-07-24T11:59:38;34.20;29.50
32640;DHT22;19049;52.524;11.468;2022-07-24T12:02:08;34.30;29.00
32640;DHT22;19049;52.524;11.468;2022-07-24T12:04:35;34.40;29.00
32640;DHT22;19049;52.524;11.468;2022-07-24T12:07:16;34.40;28.70
32640;DHT22;19049;52.524;11.468;2022-07-24T12:09:59;34.30;28.50
32640;DHT22;19049;52.524;11.468;2022-07-24T12:12:29;34.30;29.20
32640;DHT22;19049;52.524;11.468;2022-07-24T12:17:34;34.10;28.40
32640;DHT22;19049;52.524;11.468;2022-07-24T12:20:02;34.10;29.10
32640;DHT22;19049;52.524;11.468;2022-07-24T12:22:32;34.10;29.40
32640;DHT22;19049;52.524;11.468;2022-07-24T12:24:57;34.20;29.40
32640;DHT22;19049;52.524;11.468;2022-07-24T12:27:41;34.30;29.00
32640;DHT22;19049;52.524;11.468;2022-07-24T12:30:32;34.50;28.80
32640;DHT22;19049;52.524;11.468;2022-07-24T12:36:10;34.60;29.10
32640;DHT22;19049;52.524;11.468;2022-07-24T12:38:38;34.80;28.30
32640;DHT22;19049;52.524;11.468;2022-07-24T12:41:15;34.90;28.70
32640;DHT22;19049;52.524;11.468;2022-07-24T12:46:22;35.20;27.90
32640;DHT22;19049;52.524;11.468;2022-07-24T12:49:11;35.10;28.20
32640;DHT22;19049;52.524;11.468;2022-07-24T12:51:59;35.20;28.40
32640;DHT22;19049;52.524;11.468;2022-07-24T12:54:35;35.40;27.20
32640;DHT22;19049;52.524;11.468;2022-07-24T12:57:09;35.50;26.90
32640;DHT22;19049;52.524;11.468;2022-07-24T12:59:38;35.60;26.90
32640;DHT22;19049;52.524;11.468;2022-07-24T13:02:21;35.70;27.40
32640;DHT22;19049;52.524;11.468;2022-07-24T13:04:52;35.80;27.10
32640;DHT22;19049;52.524;11.468;2022-07-24T13:07:20;35.90;27.10
32640;DHT22;19049;52.524;11.468;2022-07-24T13:09:48;36.00;27.30
32640;DHT22;19049;52.524;11.468;2022-07-24T13:12:15;36.10;27.30
32640;DHT22;19049;52.524;11.468;2022-07-24T13:14:40;36.20;27.10
32640;DHT22;19049;52.524;11.468;2022-07-24T13:17:09;36.30;27.30
32640;DHT22;19049;52.524;11.468;2022-07-24T13:19:37;36.40;27.80
32640;DHT22;19049;52.524;11.468;2022-07-24T13:22:03;36.60;27.70
32640;DHT22;19049;52.524;11.468;2022-07-24T13:24:28;36.90;27.20
32640;DHT22;19049;52.524;11.468;2022-07-24T13:26:59;37.00;27.10
32640;DHT22;19049;52.524;11.468;2022-07-24T13:29:27;37.10;26.90
32640;DHT22;19049;52.524;11.468;2022-07-24T13:31:53;37.30;27.00
32640;DHT22;19049;52.524;11.468;2022-07-24T13:34:19;37.50;27.00
32640;DHT22;19049;52.524;11.468;2022-07-24T13:36:52;37.70;26.90
32640;DHT22;19049;52.524;11.468;2022-07-24T13:39:18;37.80;26.50
32640;DHT22;19049;52.524;11.468;2022-07-24T13:41:43;37.90;26.20
32640;DHT22;19049;52.524;11.468;2022-07-24T13:44:09;38.00;26.80
32640;DHT22;19049;52.524;11.468;2022-07-24T13:46:37;38.10;25.60
32640;DHT22;19049;52.524;11.468;2022-07-24T13:49:05;38.10;25.70
32640;DHT22;19049;52.524;11.468;2022-07-24T13:51:40;38.20;25.90
32640;DHT22;19049;52.524;11.468;2022-07-24T13:54:08;38.40;25.60
32640;DHT22;19049;52.524;11.468;2022-07-24T13:56:34;38.60;25.70
32640;DHT22;19049;52.524;11.468;2022-07-24T13:59:07;38.70;25.30
32640;DHT22;19049;52.524;11.468;2022-07-24T14:01:32;38.80;24.40
32640;DHT22;19049;52.524;11.468;2022-07-24T14:03:58;38.90;24.70
32640;DHT22;19049;52.524;11.468;2022-07-24T14:06:24;39.00;24.60
32640;DHT22;19049;52.524;11.468;2022-07-24T14:08:51;39.10;25.30
32640;DHT22;19049;52.524;11.468;2022-07-24T14:11:30;39.20;25.50
32640;DHT22;19049;52.524;11.468;2022-07-24T14:13:59;39.40;24.80
32640;DHT22;19049;52.524;11.468;2022-07-24T14:16:28;39.60;25.30
32640;DHT22;19049;52.524;11.468;2022-07-24T14:19:11;39.70;25.00
32640;DHT22;19049;52.524;11.468;2022-07-24T14:21:39;39.70;24.30
32640;DHT22;19049;52.524;11.468;2022-07-24T14:27:14;39.60;23.70
32640;DHT22;19049;52.524;11.468;2022-07-24T14:29:42;39.60;23.80
32640;DHT22;19049;52.524;11.468;2022-07-24T14:32:08;39.50;23.90
32640;DHT22;19049;52.524;11.468;2022-07-24T14:34:40;39.60;24.00
32640;DHT22;19049;52.524;11.468;2022-07-24T14:37:08;39.60;23.90
32640;DHT22;19049;52.524;11.468;2022-07-24T14:40:00;39.60;23.40
32640;DHT22;19049;52.524;11.468;2022-07-24T14:45:49;39.50;24.30
32640;DHT22;19049;52.524;11.468;2022-07-24T14:48:18;39.50;24.20
32640;DHT22;19049;52.524;11.468;2022-07-24T14:50:46;39.40;24.30
32640;DHT22;19049;52.524;11.468;2022-07-24T14:53:15;39.40;23.80
32640;DHT22;19049;52.524;11.468;2022-07-24T14:55:45;39.50;23.90
32640;DHT22;19049;52.524;11.468;2022-07-24T14:58:15;39.50;23.90
32640;DHT22;19049;52.524;11.468;2022-07-24T15:00:43;39.50;23.70
32640;DHT22;19049;52.524;11.468;2022-07-24T15:03:21;39.40;23.80
32640;DHT22;19049;52.524;11.468;2022-07-24T15:05:49;39.30;23.30
32640;DHT22;19049;52.524;11.468;2022-07-24T15:08:19;39.20;23.70
32640;DHT22;19049;52.524;11.468;2022-07-24T15:10:55;39.20;22.80
32640;DHT22;19049;52.524;11.468;2022-07-24T15:13:26;39.00;23.30
32640;DHT22;19049;52.524;11.468;2022-07-24T15:16:26;38.90;23.60
32640;DHT22;19049;52.524;11.468;2022-07-24T15:22:33;38.90;23.70
32640;DHT22;19049;52.524;11.468;2022-07-24T15:28:24;38.90;23.60
32640;DHT22;19049;52.524;11.468;2022-07-24T15:33:45;38.60;23.70
32640;DHT22;19049;52.524;11.468;2022-07-24T15:36:19;38.30;23.70
32640;DHT22;19049;52.524;11.468;2022-07-24T15:38:53;38.20;23.50
32640;DHT22;19049;52.524;11.468;2022-07-24T15:41:20;38.10;23.70
32640;DHT22;19049;52.524;11.468;2022-07-24T15:43:45;38.10;24.20
32640;DHT22;19049;52.524;11.468;2022-07-24T15:46:11;38.00;24.40
32640;DHT22;19049;52.524;11.468;2022-07-24T15:48:36;38.00;24.30
32640;DHT22;19049;52.524;11.468;2022-07-24T15:51:02;38.00;24.50
32640;DHT22;19049;52.524;11.468;2022-07-24T15:53:35;38.00;24.60
32640;DHT22;19049;52.524;11.468;2022-07-24T15:56:00;38.00;24.50
32640;DHT22;19049;52.524;11.468;2022-07-24T15:58:26;38.10;24.40
32640;DHT22;19049;52.524;11.468;2022-07-24T16:00:59;38.00;24.10
32640;DHT22;19049;52.524;11.468;2022-07-24T16:03:27;37.90;24.30
32640;DHT22;19049;52.524;11.468;2022-07-24T16:06:15;37.80;24.10
32640;DHT22;19049;52.524;11.468;2022-07-24T16:08:44;37.60;24.10
32640;DHT22;19049;52.524;11.468;2022-07-24T16:14:20;37.40;23.90
32640;DHT22;19049;52.524;11.468;2022-07-24T16:17:10;37.40;24.60
32640;DHT22;19049;52.524;11.468;2022-07-24T16:19:35;37.40;24.30
32640;DHT22;19049;52.524;11.468;2022-07-24T16:22:06;37.40;24.40
32640;DHT22;19049;52.524;11.468;2022-07-24T16:24:45;37.40;24.50
32640;DHT22;19049;52.524;11.468;2022-07-24T16:27:32;37.40;24.40
32640;DHT22;19049;52.524;11.468;2022-07-24T16:30:03;37.40;24.90
32640;DHT22;19049;52.524;11.468;2022-07-24T16:32:32;37.40;24.70
32640;DHT22;19049;52.524;11.468;2022-07-24T16:34:57;37.40;24.30